In Rescue
 
Open Full Screen Window  High Contrast Mode
Wind Gusting 00 knots
06
October 25, 2021 3:29 PM CDT
Weather Information
Wind Direction
  100 °
Wind Speed
  06 kt (7 mph)
Wind Gust
  00 kt (0 mph)
Altimeter
30.13 in
Visibility
10 SM
Temperature
11° C
52° F
Dewpoint
01° C
34° F
Humidity
50%
1hr Rain Fall
00.00 in.
24hr Rain Fall
00.00 in.
Sky Condition
Scattered @ 3,700 ft
VFR

METAR KSAZ 252029Z AUTO 10006KT 10SM SCT037 11/01 A3013 RMK AO2

FAA Disclaimer: The data displayed is for advisory purposes only and is not to be used for flight planning or operations.